Rolf Williams — WDC7079 — position and weather

sailwx.info

Track history (hours):
 
Tides and Currents Weather Stations Pressure Air Temp Water Temp Dewpoint Dewpoint Depression Visibility Wind Speed Wind Dir Waves Ship Positions

Rolf Williams

Owner: Marine Oil Service of New York, Elizabeth, NJ. More information available from US FCC via Universal Licensing System and Coast Guard Vessel Documentation Center.

Last reported at 2017-Dec-11 13:39 UTC. Time now 2017-Dec-12 19:54 UTC.
Position N 36°55' W 076°20'.

; draft 4 m.

Type: Tanker. MMSI: 367065790.

Date/timePositionNaut miles runAvg speedWind from/ knotsBaromVisibWave heightAir tempDewpointWater temp
2017-Dec-11 13:39N 36°55' W 076°20'2 7.9
2017-Dec-11 13:25N 36°53' W 076°20'3 7.6
2017-Dec-11 13:00N 36°51' W 076°18'  
2017-Dec-08 16:01N 36°49' W 076°17'0 0.1
2017-Dec-08 15:58N 36°49' W 076°17'0 0.0
2017-Dec-08 15:28N 36°49' W 076°17'0 0.0
2017-Dec-08 14:58N 36°49' W 076°17'0 0.0
2017-Dec-08 14:28N 36°49' W 076°17'0 0.0
2017-Dec-08 13:58N 36°49' W 076°17'0 0.0
2017-Dec-08 13:28N 36°49' W 076°17'0 0.0
2017-Dec-07 18:55N 36°50' W 076°17'2 5.9
2017-Dec-07 18:31N 36°52' W 076°19'2 0.6
2017-Dec-07 14:43N 36°54' W 076°20'2 7.8
2017-Dec-07 14:30N 36°52' W 076°20'3 5.0
2017-Dec-07 14:00N 36°50' W 076°18'1 1.5
2017-Dec-07 13:29N 36°49' W 076°17'  
2017-Dec-04 06:54N 36°49' W 076°17'2 4.1
2017-Dec-04 06:30N 36°51' W 076°18'1 0.4
2017-Dec-04 03:12N 36°51' W 076°20'1 6.1
2017-Dec-04 03:00N 36°51' W 076°18'3 5.8
2017-Dec-04 02:30N 36°48' W 076°17'2 3.6
2017-Dec-04 02:00N 36°47' W 076°18'0 0.0
2017-Dec-04 01:30N 36°47' W 076°18'0 0.0
2017-Dec-04 01:00N 36°47' W 076°18'0 0.0
2017-Dec-04 00:30N 36°47' W 076°18'0 0.0
2017-Dec-04 00:00N 36°47' W 076°18'0 0.0
2017-Dec-03 23:30N 36°47' W 076°18'0 0.0
2017-Dec-03 23:00N 36°47' W 076°18'2 4.6
2017-Dec-03 22:30N 36°49' W 076°18'1 0.0
2017-Dec-02 20:46N 36°49' W 076°17'2 5.8
2017-Dec-02 20:30N 36°51' W 076°18'2 2.1
2017-Dec-02 19:23N 36°53' W 076°20'2 0.8
2017-Dec-02 16:29N 36°55' W 076°20'4 9.2
2017-Dec-02 16:00N 36°51' W 076°18'2 1.9
2017-Dec-02 14:56N 36°49' W 076°17'0 0.0
2017-Dec-02 14:29N 36°49' W 076°17'0 0.5
2017-Dec-02 14:00N 36°49' W 076°17'  
Track history (hours):
 
Tides and Currents Weather Stations Pressure Air Temp Water Temp Dewpoint Dewpoint Depression Visibility Wind Speed Wind Dir Waves Ship Positions

Rolf Williams

Owner: Marine Oil Service of New York, Elizabeth, NJ. More information available from US FCC via Universal Licensing System and Coast Guard Vessel Documentation Center.

Last reported at 2017-Dec-11 13:39 UTC. Time now 2017-Dec-12 19:54 UTC.
Position N 36°55' W 076°20'.

; draft 4 m.

Type: Tanker. MMSI: 367065790.

Date/timePositionNaut miles runAvg speedWind from/ knotsBaromVisibWave heightAir tempDewpointWater temp
2017-Dec-11 13:39N 36°55' W 076°20'2 7.9
2017-Dec-11 13:25N 36°53' W 076°20'3 7.6
2017-Dec-11 13:00N 36°51' W 076°18'  
2017-Dec-08 16:01N 36°49' W 076°17'0 0.1
2017-Dec-08 15:58N 36°49' W 076°17'0 0.0
2017-Dec-08 15:28N 36°49' W 076°17'0 0.0
2017-Dec-08 14:58N 36°49' W 076°17'0 0.0
2017-Dec-08 14:28N 36°49' W 076°17'0 0.0
2017-Dec-08 13:58N 36°49' W 076°17'0 0.0
2017-Dec-08 13:28N 36°49' W 076°17'0 0.0
2017-Dec-07 18:55N 36°50' W 076°17'2 5.9
2017-Dec-07 18:31N 36°52' W 076°19'2 0.6
2017-Dec-07 14:43N 36°54' W 076°20'2 7.8
2017-Dec-07 14:30N 36°52' W 076°20'3 5.0
2017-Dec-07 14:00N 36°50' W 076°18'1 1.5
2017-Dec-07 13:29N 36°49' W 076°17'  
2017-Dec-04 06:54N 36°49' W 076°17'2 4.1
2017-Dec-04 06:30N 36°51' W 076°18'1 0.4
2017-Dec-04 03:12N 36°51' W 076°20'1 6.1
2017-Dec-04 03:00N 36°51' W 076°18'3 5.8
2017-Dec-04 02:30N 36°48' W 076°17'2 3.6
2017-Dec-04 02:00N 36°47' W 076°18'0 0.0
2017-Dec-04 01:30N 36°47' W 076°18'0 0.0
2017-Dec-04 01:00N 36°47' W 076°18'0 0.0
2017-Dec-04 00:30N 36°47' W 076°18'0 0.0
2017-Dec-04 00:00N 36°47' W 076°18'0 0.0
2017-Dec-03 23:30N 36°47' W 076°18'0 0.0
2017-Dec-03 23:00N 36°47' W 076°18'2 4.6
2017-Dec-03 22:30N 36°49' W 076°18'1 0.0
2017-Dec-02 20:46N 36°49' W 076°17'2 5.8
2017-Dec-02 20:30N 36°51' W 076°18'2 2.1
2017-Dec-02 19:23N 36°53' W 076°20'2 0.8
2017-Dec-02 16:29N 36°55' W 076°20'4 9.2
2017-Dec-02 16:00N 36°51' W 076°18'2 1.9
2017-Dec-02 14:56N 36°49' W 076°17'0 0.0
2017-Dec-02 14:29N 36°49' W 076°17'0 0.5
2017-Dec-02 14:00N 36°49' W 076°17'  

Dump ship's entire track history